createdAt,value
2023-01-13T00:09:56.673Z,20.60
2023-01-13T00:19:57.091Z,20.00
2023-01-13T00:29:57.368Z,17.90
2023-01-13T00:39:57.641Z,19.30
2023-01-13T00:49:57.932Z,15.40
2023-01-13T00:59:58.248Z,13.70
2023-01-13T01:09:58.520Z,15.60
2023-01-13T01:19:58.957Z,13.20
2023-01-13T01:39:59.202Z,14.30
2023-01-13T01:49:59.467Z,13.90
2023-01-13T01:59:59.679Z,13.70
2023-01-13T02:09:59.914Z,14.00
2023-01-13T02:20:00.115Z,12.60
2023-01-13T02:30:00.351Z,14.20
2023-01-13T02:40:00.625Z,14.30
2023-01-13T02:50:00.842Z,12.70
2023-01-13T03:00:01.029Z,13.30
2023-01-13T03:10:01.314Z,12.40
2023-01-13T03:20:01.595Z,12.20
2023-01-13T03:30:01.839Z,12.70
2023-01-13T03:40:02.149Z,12.10
2023-01-13T03:50:02.444Z,12.60
2023-01-13T04:10:03.058Z,11.80
2023-01-13T04:20:03.460Z,11.90
2023-01-13T04:30:03.815Z,12.40
2023-01-13T04:40:04.037Z,11.40
2023-01-13T04:50:04.349Z,10.30
2023-01-13T05:00:04.683Z,9.60
2023-01-13T05:10:05.058Z,9.60
2023-01-13T05:20:05.455Z,9.40
2023-01-13T05:30:05.771Z,9.60
2023-01-13T05:40:06.110Z,10.10
2023-01-13T05:50:06.491Z,10.70
2023-01-13T06:00:06.822Z,11.00
2023-01-13T06:10:07.176Z,10.20
2023-01-13T06:20:07.526Z,12.50
2023-01-13T06:30:07.892Z,13.80
2023-01-13T06:40:08.234Z,12.70
2023-01-13T06:50:08.551Z,12.80
2023-01-13T07:00:08.846Z,11.60
2023-01-13T07:10:09.153Z,12.00
2023-01-13T07:20:09.455Z,12.10
2023-01-13T07:30:09.774Z,11.60
2023-01-13T07:50:10.282Z,12.70
2023-01-13T08:00:12.847Z,12.30
2023-01-13T08:10:11.040Z,12.60
2023-01-13T08:20:11.459Z,13.60
2023-01-13T08:30:11.808Z,13.10
2023-01-13T08:40:12.248Z,12.50
2023-01-13T08:50:12.650Z,11.60
2023-01-13T09:00:13.002Z,11.00
2023-01-13T09:10:13.470Z,10.20
2023-01-13T09:20:14.073Z,10.90
2023-01-13T09:30:14.336Z,9.90
2023-01-13T09:40:14.949Z,10.90
2023-01-13T09:50:15.229Z,11.00
2023-01-13T10:00:15.470Z,10.90
2023-01-13T10:10:15.597Z,10.00
2023-01-13T10:20:17.253Z,10.00
2023-01-13T10:30:17.635Z,11.10
2023-01-13T10:40:16.571Z,11.40
2023-01-13T10:50:17.168Z,10.90
2023-01-13T11:00:17.102Z,11.40
2023-01-13T11:10:17.479Z,12.20
2023-01-13T11:20:17.680Z,11.40
2023-01-13T11:40:19.439Z,12.30
2023-01-13T11:50:18.478Z,12.80
2023-01-13T12:00:18.800Z,11.60
2023-01-13T12:10:19.381Z,12.50
2023-01-13T12:20:19.365Z,13.10
2023-01-13T12:30:19.708Z,12.60
2023-01-13T12:40:20.012Z,13.50
2023-01-13T12:50:20.502Z,14.50
2023-01-13T13:00:20.761Z,14.40
2023-01-13T13:10:21.064Z,14.80
2023-01-13T13:20:21.635Z,13.70
2023-01-13T13:30:21.907Z,16.40
2023-01-13T13:40:22.179Z,15.00
2023-01-13T13:50:22.770Z,14.20
2023-01-13T14:00:23.083Z,13.80
2023-01-13T14:10:23.094Z,14.10
2023-01-13T14:20:23.396Z,14.50
2023-01-13T14:30:25.728Z,14.10
2023-01-13T14:40:24.376Z,13.50
2023-01-13T14:50:26.195Z,13.00
2023-01-13T15:00:24.942Z,13.60
2023-01-13T15:10:25.240Z,12.90
2023-01-13T15:20:26.935Z,12.30
2023-01-13T15:30:26.077Z,12.80
2023-01-13T15:40:26.619Z,13.90
2023-01-13T15:50:26.797Z,14.40
2023-01-13T16:00:27.240Z,14.60
2023-01-13T16:10:27.522Z,14.70
2023-01-13T16:20:28.092Z,14.00
2023-01-13T16:30:28.390Z,14.10
2023-01-13T16:40:30.917Z,14.80
2023-01-13T16:50:29.089Z,13.10
2023-01-13T17:00:29.727Z,12.00
2023-01-13T17:10:29.921Z,10.00
2023-01-13T17:20:30.312Z,10.90
2023-01-13T17:30:30.709Z,10.60
2023-01-13T17:40:31.152Z,10.80
2023-01-13T17:50:31.599Z,10.00
2023-01-13T18:00:34.018Z,10.20
2023-01-13T18:10:32.628Z,10.60
2023-01-13T18:20:32.877Z,9.40
2023-01-13T18:30:33.331Z,10.70
2023-01-13T18:40:33.795Z,9.50
2023-01-13T18:50:34.217Z,10.70
2023-01-13T19:00:36.715Z,11.90
2023-01-13T19:10:35.511Z,10.70
2023-01-13T19:20:35.824Z,11.50
2023-01-13T19:30:36.980Z,12.80
2023-01-13T19:40:36.701Z,13.70
2023-01-13T19:50:37.299Z,13.60
2023-01-13T20:00:37.331Z,12.60
2023-01-13T20:10:37.993Z,12.50
2023-01-13T20:20:38.192Z,13.20
2023-01-13T20:30:38.783Z,15.00
2023-01-13T20:40:41.027Z,15.20
2023-01-13T20:50:39.462Z,13.80
2023-01-13T21:00:41.970Z,14.50
2023-01-13T21:10:40.537Z,15.40
2023-01-13T21:20:42.795Z,16.60
2023-01-13T21:30:43.274Z,17.70
2023-01-13T21:40:41.551Z,15.70
2023-01-13T21:50:42.257Z,18.20
2023-01-13T22:00:42.569Z,16.00
2023-01-13T22:10:43.065Z,16.50
2023-01-13T22:20:43.218Z,15.60
2023-01-13T22:30:43.571Z,15.00
2023-01-13T22:40:43.967Z,16.40
2023-01-13T22:50:44.424Z,17.20
2023-01-13T23:00:44.960Z,18.20
2023-01-13T23:10:45.435Z,17.80
2023-01-13T23:20:45.855Z,18.60
2023-01-13T23:30:46.301Z,19.00
2023-01-13T23:40:46.741Z,17.50
2023-01-13T23:50:47.140Z,17.40
